Flight Track Log - Related Links

Times and Time Zones

All times are in EDT time to prevent confusion due to time zone crossing. See the EJA982 flight status page for this flight to view local times or setup timezone preferences in your user account.

Time Position Orientation Groundspeed Altitude Reporting Facility
EDT Latitude Longitude Course Direction KTS MPH feet Rate Location/Type
Thu 05:27:10 PM 41.0333 -73.7500 270° West 183 211 4,300  Level New York TRACON
Thu 05:28:04 PM 41.0167 -73.8167 252° West 211 243 6,900 3,000 Climbing New York TRACON
Thu 05:29:04 PM 40.9667 -73.8667 217° Southwest 257 296 10,000 2,550 Climbing New York TRACON
Thu 05:30:04 PM 40.9000 -73.9167 210° Southwest 287 330 12,000 1,000 Climbing New York TRACON
Thu 05:31:04 PM 40.8333 -73.9833 217° Southwest 305 351 12,000  Level New York TRACON
Thu 05:32:04 PM 40.7667 -74.0500 217° Southwest 295 339 12,000  Level New York TRACON
Thu 05:33:04 PM 40.7000 -74.1167 217° Southwest 296 341 12,000 450 Level New York TRACON
Thu 05:34:04 PM 40.6333 -74.1833 220° Southwest 298 343 12,900 1,450 Climbing New York TRACON
Thu 05:35:04 PM 40.5500 -74.1833 180° South 325 374 14,900 1,577 Climbing New York TRACON
Thu 05:36:40 PM 40.3928 -74.2100 187° South 378 435 17,000 803 Climbing New York Center
Thu 05:37:41 PM 40.2861 -74.2236 186° South 385 443 17,000 148 Level New York Center
Thu 05:38:42 PM 40.1794 -74.2347 185° South 385 443 17,300 1,091 Climbing New York Center
Thu 05:39:31 PM 40.0892 -74.2439 184° South 416 479 19,000 1,983 Climbing Washington Center
Thu 05:40:43 PM 39.9731 -74.2786 193° South 397 457 21,300 1,374 Climbing Washington Center
Thu 05:41:42 PM 39.8864 -74.3639 217° Southwest 380 437 22,000 353 Climbing Washington Center
Thu 05:42:42 PM 39.7978 -74.4544 218° Southwest 394 453 22,000 198 Level Washington Center
Thu 05:43:43 PM 39.7217 -74.5583 226° Southwest 401 461 22,400 1,361 Climbing Washington Center
Thu 05:44:41 PM 39.6433 -74.6644 226° Southwest 401 461 24,700 2,319 Climbing Washington Center
Thu 05:45:42 PM 39.5628 -74.7706 225° Southwest 408 470 27,000 2,066 Climbing Washington Center
Thu 05:46:43 PM 39.4781 -74.8817 225° Southwest 420 483 28,900 1,785 Climbing Washington Center
Thu 05:47:43 PM 39.3911 -74.9956 225° Southwest 432 497 30,600 1,729 Climbing Washington Center
Thu 05:48:41 PM 39.2958 -75.1036 221° Southwest 444 511 32,300 1,729 Climbing Washington Center
Thu 05:49:41 PM 39.1689 -75.1714 202° Southwest 465 535 34,000 1,686 Climbing Washington Center
Thu 05:50:42 PM 39.0356 -75.2256 198° South 490 564 35,700 1,721 Climbing Washington Center
Thu 05:51:43 PM 38.9044 -75.2822 199° South 501 577 37,500 1,672 Climbing Washington Center
Thu 05:52:44 PM 38.7733 -75.3333 197° South 501 577 39,100 1,576 Climbing Washington Center
Thu 05:53:41 PM 38.6483 -75.3897 199° South 494 568 40,600 1,373 Climbing Washington Center
Thu 05:54:42 PM 38.5211 -75.4378 196° South 484 557 41,800 1,033 Climbing Washington Center
Thu 05:55:43 PM 38.3983 -75.4883 198° South 478 550 42,700 605 Climbing Washington Center
Thu 05:56:41 PM 38.2794 -75.5519 203° Southwest 478 550 43,000 151 Climbing Washington Center
Thu 05:57:42 PM 38.1586 -75.6233 205° Southwest 478 550 43,000  Level Washington Center
Thu 05:58:42 PM 38.0272 -75.7050 206° Southwest 478 550 43,000  Level Washington Center
Thu 05:59:41 PM 37.9206 -75.7839 210° Southwest 483 556 43,000  Level Washington Center
Thu 06:00:42 PM 37.7953 -75.8519 203° Southwest 488 562 43,000  Level Washington Center
Thu 06:01:42 PM 37.6764 -75.9328 208° Southwest 488 562 43,000  Level Washington Center
Thu 06:02:43 PM 37.5531 -76.0056 205° Southwest 488 562 43,000  Level Washington Center
Thu 06:03:41 PM 37.4297 -76.0808 206° Southwest 488 562 43,000  Level Washington Center
Thu 06:04:43 PM 37.3064 -76.1583 207° Southwest 488 562 43,000  Level Washington Center
Thu 06:05:43 PM 37.1744 -76.2228 201° Southwest 493 567 43,000  Level Washington Center
Thu 06:06:41 PM 37.0428 -76.2761 198° South 499 574 43,000  Level Washington Center
Thu 06:07:42 PM 36.9089 -76.3297 198° South 504 580 43,000  Level Washington Center
Thu 06:08:42 PM 36.7794 -76.3828 198° South 504 580 43,000  Level Washington Center
Thu 06:09:43 PM 36.6369 -76.4436 199° South 504 580 43,000  Level Washington Center
Thu 06:10:41 PM 36.5053 -76.4964 198° South 504 580 43,000  Level Washington Center
Thu 06:11:42 PM 36.3714 -76.5517 198° South 504 580 43,000  Level Washington Center
Thu 06:12:42 PM 36.2394 -76.6014 197° South 504 580 43,000  Level Washington Center
Thu 06:13:41 PM 36.1056 -76.6539 198° South 504 580 43,000  Level Washington Center
Thu 06:14:41 PM 35.9694 -76.7058 197° South 504 580 43,000  Level Washington Center
Thu 06:15:42 PM 35.8375 -76.7603 198° South 504 580 43,000  Level Washington Center
Thu 06:16:43 PM 35.7014 -76.8094 196° South 504 580 43,000  Level Washington Center
Thu 06:17:44 PM 35.5861 -76.8589 199° South 504 580 43,000  Level Washington Center
Thu 06:18:42 PM 35.4497 -76.9153 199° South 504 580 43,000  Level Washington Center
Thu 06:19:43 PM 35.3136 -76.9667 197° South 504 580 43,000  Level Washington Center
Thu 06:20:41 PM 35.1772 -77.0178 197° South 504 580 43,000  Level Washington Center
Thu 06:21:42 PM 35.0306 -77.0783 199° South 509 586 43,000  Level Washington Center
Thu 06:22:42 PM 34.9089 -77.1244 197° South 504 580 43,000  Level Washington Center
Thu 06:23:43 PM 34.7600 -77.1822 198° South 504 580 43,000  Level Washington Center
Thu 06:24:44 PM 34.6236 -77.2350 198° South 504 580 43,000  Level Washington Center
Thu 06:25:42 PM 34.4875 -77.2878 198° South 504 580 43,000  Level Washington Center
Thu 06:26:42 PM 34.3531 -77.3403 198° South 504 580 43,000  Level Washington Center
Thu 06:27:41 PM 34.2189 -77.3903 197° South 504 580 43,000  Level Washington Center
Thu 06:28:41 PM 34.0825 -77.4400 197° South 509 586 43,000  Level Washington Center
Thu 06:29:27 PM 33.9789 -77.4786 197° South 504 580 43,000  Level Jacksonville Center
Thu 06:30:27 PM 33.8414 -77.5319 198° South 528 608 43,000  Level Jacksonville Center
Thu 06:31:27 PM 33.7058 -77.5828 197° South 517 595 43,000  Level Jacksonville Center
Thu 06:32:27 PM 33.5889 -77.6272 198° South 506 582 43,000  Level Jacksonville Center
Thu 06:33:27 PM 33.4533 -77.6775 197° South 506 582 43,000  Level Jacksonville Center
Thu 06:34:27 PM 33.3175 -77.7253 196° South 512 589 43,000  Level Jacksonville Center
Thu 06:35:27 PM 33.1797 -77.7778 198° South 512 589 43,000  Level Jacksonville Center
Thu 06:36:27 PM 33.0483 -77.8275 198° South 507 583 43,000  Level Jacksonville Center
Thu 06:37:27 PM 32.9103 -77.8750 196° South 507 583 43,000  Level Jacksonville Center
Thu 06:38:27 PM 32.7767 -77.9267 198° South 507 583 43,000  Level Jacksonville Center
Thu 06:39:27 PM 32.6408 -77.9761 197° South 512 589 43,000  Level Jacksonville Center
Thu 06:40:27 PM 32.5050 -78.0228 196° South 512 589 43,000  Level Jacksonville Center
Thu 06:41:27 PM 32.3692 -78.0719 197° South 512 589 43,000  Level Jacksonville Center
Thu 06:42:27 PM 32.2331 -78.1208 197° South 512 589 43,000  Level Jacksonville Center
Thu 06:43:27 PM 32.0994 -78.1694 197° South 512 589 43,000  Level Jacksonville Center
Thu 06:44:27 PM 31.9636 -78.2206 198° South 507 583 43,000  Level Jacksonville Center
Thu 06:45:27 PM 31.8214 -78.2717 197° South 512 589 43,000  Level Jacksonville Center
Thu 06:46:27 PM 31.6833 -78.3250 198° South 512 589 43,000  Level Jacksonville Center
Thu 06:47:27 PM 31.5475 -78.3756 198° South 506 582 43,000  Level Jacksonville Center
Thu 06:48:27 PM 31.4133 -78.4211 196° South 515 593 43,000  Level Jacksonville Center
Thu 06:49:27 PM 31.2775 -78.4714 198° South 510 587 43,000  Level Jacksonville Center
Thu 06:50:27 PM 31.1453 -78.5164 196° South 504 580 43,000  Level Jacksonville Center
Thu 06:51:27 PM 31.0050 -78.5642 196° South 510 587 43,000  Level Jacksonville Center
Thu 06:52:27 PM 30.8711 -78.6136 198° South 510 587 43,000  Level Jacksonville Center
Thu 06:53:27 PM 30.7411 -78.6606 197° South 503 579 43,000  Level Jacksonville Center
Thu 06:54:27 PM 30.6006 -78.7081 196° South 511 588 43,000  Level Jacksonville Center
Thu 06:55:34 PM 30.4678 -78.7564 197° South 477 549 43,000  Level Miami Center
Thu 06:56:34 PM 30.3278 -78.7950 193° South 503 579 43,000  Level Miami Center
Thu 06:57:34 PM 30.1856 -78.8283 191° South 514 592 43,000  Level Miami Center
Thu 06:58:34 PM 30.0475 -78.8592 191° South 514 592 43,000  Level Miami Center
Thu 06:59:34 PM 29.9072 -78.8950 192° South 514 592 43,000  Level Miami Center
Thu 07:00:34 PM 29.7711 -78.9308 193° South 508 585 43,000  Level Miami Center
Thu 07:01:34 PM 29.6289 -78.9589 190° South 512 589 43,000  Level Miami Center
Thu 07:02:34 PM 29.4950 -78.9922 192° South 501 577 43,000  Level Miami Center
Thu 07:03:34 PM 29.3589 -79.0206 190° South 501 577 43,000  Level Miami Center
Thu 07:04:34 PM 29.2228 -79.0536 192° South 506 582 43,000  Level Miami Center
Thu 07:05:34 PM 29.0825 -79.0864 192° South 511 588 43,000 -750 Level Miami Center
Thu 07:06:34 PM 28.9403 -79.1167 191° South 511 588 41,500 -2,150 Descending Miami Center
Thu 07:07:34 PM 28.8019 -79.1494 192° South 511 588 38,700 -2,800 Descending Miami Center
Thu 07:08:34 PM 28.6597 -79.1772 190° South 511 588 35,900 -2,750 Descending Miami Center
Thu 07:09:34 PM 28.5172 -79.2097 191° South 511 588 33,200 -2,650 Descending Miami Center
Thu 07:10:34 PM 28.3853 -79.2400 191° South 504 580 30,600 -2,600 Descending Miami Center
Thu 07:11:34 PM 28.2450 -79.2722 191° South 504 580 28,000 -2,650 Descending Miami Center
Thu 07:12:34 PM 28.1044 -79.3022 191° South 509 586 25,300 -2,600 Descending Miami Center
Thu 07:13:34 PM 27.9764 -79.3536 200° South 503 579 22,800 -2,450 Descending Miami Center
Thu 07:14:34 PM 27.8622 -79.4239 209° Southwest 478 550 20,400 -2,200 Descending Miami Center
Thu 07:15:34 PM 27.7544 -79.4942 210° Southwest 464 534 18,400 -2,100 Descending Miami Center
Thu 07:16:34 PM 27.6406 -79.5667 209° Southwest 440 506 16,200 -2,100 Descending Miami Center
Thu 07:17:34 PM 27.5369 -79.6297 208° Southwest 435 501 14,200 -2,000 Descending Miami Center
Thu 07:18:34 PM 27.4461 -79.6861 209° Southwest 406 467 12,200 -1,850 Descending Miami Center
Thu 07:19:34 PM 27.3806 -79.7267 209° Southwest 336 387 10,500 -1,700 Descending Miami Center
Thu 07:20:34 PM 27.3108 -79.7692 208° Southwest 303 349 8,800 -1,250 Descending Miami Center
Thu 07:21:34 PM 27.2408 -79.8167 211° Southwest 269 310 8,000 -450 Descending Miami Center
Thu 07:22:34 PM 27.1733 -79.8569 208° Southwest 275 316 7,900  Descending Miami Center
Thu 07:23:34 PM 27.1036 -79.8972 207° Southwest 275 316 8,000 -600 Climbing Miami Center
Thu 07:24:34 PM 27.0422 -79.9328 207° Southwest 275 316 6,700 -1,500 Descending Miami Center
Thu 07:25:34 PM 26.9725 -79.9731 207° Southwest 269 310 5,000 -1,400 Descending Miami Center
Thu 07:26:34 PM 26.9131 -80.0156 213° Southwest 264 304 3,900 -600 Descending Miami Center
Thu 07:27:34 PM 26.8642 -80.0608 220° Southwest 251 289 3,800 -100 Descending Miami Center
Thu 07:29:00 PM 26.7927 -80.2200 265° West  Level FlightAware Approximate
Thu 07:36:00 PM 26.6832 -80.0956 110° East  Level Estimated
Thu 07:37:00 PM 26.6832 -80.0956 110° East  Level Estimated
Thu 07:38:00 PM 26.6832 -80.0956 110° East  Level Estimated
Thu 07:39:00 PM 26.6832 -80.0956 110° East  Level Estimated
Thu 07:40:00 PM 26.6832 -80.0956 110° East  Level Estimated
Thu 07:41:00 PM 26.6832 -80.0956 110° East  Level Estimated
Thu 07:42:00 PM 26.6832 -80.0956 110° East  Level Estimated
Thu 07:43:00 PM 26.6832 -80.0956 110° East  Level Estimated
Thu 07:44:00 PM 26.6832 -80.0956 110° East  Level Estimated
Thu 07:45:00 PM 26.6832 -80.0956 110° East  Level Estimated

Login

Don't have an account? Register now (free) for customized features, flight alerts, and more!